Time;durP1;ratioP1;P1;durP2;ratioP2;P2;SDS_P1;SDS_P2;PMS_P1;PMS_P2;Temp;Humidity;BMP_temperature;BMP_pressure;BME280_temperature;BME280_humidity;BME280_pressure;Samples;Min_cycle;Max_cycle;Signal;HPM_P1;HPM_P2
2023/01/27 00:00:58;;;;;;;17.80;12.38;;;51.20;2227.20;;;;;;5087105;28;20030;-82
2023/01/27 00:03:24;;;;;;;19.73;11.80;;;26.50;2201.60;;;;;;5083750;28;20032;-83
2023/01/27 00:05:50;;;;;;;15.50;10.63;;;26.50;2201.60;;;;;;5087431;28;20017;-80
2023/01/27 00:08:16;;;;;;;18.70;11.38;;;51.20;2227.20;;;;;;5100759;28;20011;-84
2023/01/27 00:10:42;;;;;;;23.10;12.35;;;51.20;2227.20;;;;;;5099230;28;20028;-82
2023/01/27 00:13:26;;;;;;;20.90;14.30;;;51.20;2227.20;;;;;;5088323;28;20381;-83
2023/01/27 00:15:53;;;;;;;20.13;11.93;;;51.50;2227.20;;;;;;5082060;28;20123;-82
2023/01/27 00:18:18;;;;;;;20.25;11.75;;;26.50;2201.60;;;;;;5078279;28;20111;-82
2023/01/27 00:26:16;;;;;;;14.15;8.30;;;26.50;2201.60;;;;;;5076067;28;20082;-85
2023/01/27 00:28:43;;;;;;;20.52;10.73;;;26.50;2201.60;;;;;;5075505;28;20116;-82
2023/01/27 00:34:00;;;;;;;11.38;7.32;;;26.40;2201.60;;;;;;5076451;28;20032;-82
2023/01/27 00:36:28;;;;;;;17.35;10.30;;;26.50;2201.60;;;;;;5077041;28;20036;-83
2023/01/27 00:38:54;;;;;;;10.95;6.85;;;26.40;2201.60;;;;;;5074458;28;20035;-82
2023/01/27 00:41:20;;;;;;;14.48;7.63;;;26.40;2201.60;;;;;;5074935;28;20025;-81
2023/01/27 00:43:54;;;;;;;14.65;8.45;;;26.40;2201.60;;;;;;5074983;28;20078;-82
2023/01/27 00:46:23;;;;;;;20.65;10.27;;;26.50;2201.60;;;;;;5074153;28;20031;-85
2023/01/27 00:48:53;;;;;;;19.45;10.38;;;26.40;2201.60;;;;;;5074265;28;20465;-80
2023/01/27 00:51:19;;;;;;;24.98;12.30;;;26.50;2201.60;;;;;;5073854;28;20501;-83
2023/01/27 00:53:46;;;;;;;48.45;20.55;;;26.50;2201.60;;;;;;5074223;28;20059;-83
2023/01/27 00:56:12;;;;;;;17.15;10.55;;;26.50;2201.60;;;;;;5074381;28;20470;-86
2023/01/27 00:58:37;;;;;;;33.42;17.50;;;26.40;2201.60;;;;;;5074604;28;20028;-86
2023/01/27 01:01:06;;;;;;;74.20;33.50;;;26.50;2201.60;;;;;;5064060;28;20048;-85
2023/01/27 01:03:34;;;;;;;37.33;20.27;;;26.50;2201.60;;;;;;5054498;28;20033;-85
2023/01/27 01:06:05;;;;;;;32.95;17.38;;;26.50;2201.60;;;;;;5054205;28;20056;-87
2023/01/27 01:08:32;;;;;;;31.60;18.35;;;26.50;2201.60;;;;;;5056211;28;20029;-87
2023/01/27 01:10:58;;;;;;;23.38;14.88;;;26.40;2201.60;;;;;;5055838;28;20494;-86
2023/01/27 01:13:27;;;;;;;30.02;17.92;;;26.40;2201.60;;;;;;5055540;28;20028;-86
2023/01/27 01:15:53;;;;;;;19.98;11.98;;;26.40;2201.60;;;;;;5057645;28;20025;-85
2023/01/27 01:18:20;;;;;;;20.55;11.60;;;26.30;2201.60;;;;;;5055491;28;20025;-85
2023/01/27 01:20:46;;;;;;;12.18;8.35;;;26.40;2201.60;;;;;;5055567;28;20025;-85
2023/01/27 01:23:13;;;;;;;14.48;8.85;;;26.30;2201.60;;;;;;5055210;28;20082;-85
2023/01/27 01:25:40;;;;;;;14.10;9.38;;;26.30;2201.60;;;;;;5055466;28;20036;-86
2023/01/27 01:28:06;;;;;;;11.88;7.50;;;26.20;2201.60;;;;;;5054750;28;20079;-85
2023/01/27 01:30:36;;;;;;;12.18;7.60;;;26.20;2201.60;;;;;;5053927;28;20036;-88
2023/01/27 01:33:02;;;;;;;20.00;11.48;;;26.30;2201.60;;;;;;5054236;28;20033;-86
2023/01/27 01:35:29;;;;;;;20.38;13.88;;;26.30;2201.60;;;;;;5053653;28;20033;-87
2023/01/27 01:37:55;;;;;;;17.50;11.68;;;26.30;2201.60;;;;;;5053945;28;20052;-86
2023/01/27 01:40:21;;;;;;;18.83;11.52;;;26.40;2201.60;;;;;;5053721;28;20036;-86
2023/01/27 01:42:59;;;;;;;22.38;13.43;;;26.10;2201.60;;;;;;5053854;28;20025;-87
2023/01/27 01:45:31;;;;;;;20.33;11.18;;;26.40;2201.60;;;;;;5053743;28;20040;-86
2023/01/27 01:48:07;;;;;;;21.77;11.98;;;26.40;2201.60;;;;;;5053792;28;20033;-86
2023/01/27 01:50:34;;;;;;;16.92;11.25;;;26.40;2201.60;;;;;;5053960;28;20056;-86
2023/01/27 01:53:02;;;;;;;17.10;9.63;;;26.30;2201.60;;;;;;5053995;28;20057;-86
2023/01/27 01:55:29;;;;;;;11.70;7.72;;;26.30;2201.60;;;;;;5053805;28;20033;-88
2023/01/27 01:57:55;;;;;;;9.63;6.90;;;26.40;2201.60;;;;;;5053892;28;20462;-87
2023/01/27 02:00:21;;;;;;;16.08;10.20;;;26.30;2201.60;;;;;;5053604;28;20025;-87
2023/01/27 02:02:48;;;;;;;16.17;9.32;;;26.50;2201.60;;;;;;5054060;28;20469;-86
2023/01/27 02:05:26;;;;;;;14.35;9.57;;;26.50;2201.60;;;;;;5053898;28;20032;-85
2023/01/27 02:08:08;;;;;;;14.60;9.27;;;26.50;2201.60;;;;;;5054201;28;20070;-85
2023/01/27 02:10:34;;;;;;;12.32;8.35;;;26.50;2201.60;;;;;;5052810;28;20482;-85
2023/01/27 02:13:00;;;;;;;15.75;9.00;;;26.50;2201.60;;;;;;5053537;28;20102;-84
2023/01/27 02:15:27;;;;;;;17.02;10.23;;;26.50;2201.60;;;;;;5053221;28;20025;-83
2023/01/27 02:17:53;;;;;;;18.27;11.40;;;26.50;2201.60;;;;;;5052947;28;20048;-83
2023/01/27 02:20:44;;;;;;;26.42;14.32;;;51.20;2227.20;;;;;;5053607;28;20474;-84
2023/01/27 02:23:26;;;;;;;15.50;9.20;;;51.20;2227.20;;;;;;5053417;28;20021;-85
2023/01/27 02:26:14;;;;;;;12.25;8.52;;;51.20;2227.20;;;;;;5053183;28;20552;-83
2023/01/27 02:28:40;;;;;;;13.25;8.65;;;51.20;2227.20;;;;;;5054935;28;20043;-83
2023/01/27 02:31:06;;;;;;;13.55;9.00;;;51.30;2227.20;;;;;;5057359;28;20025;-84
2023/01/27 02:33:32;;;;;;;17.33;11.10;;;51.30;2227.20;;;;;;5057031;28;20103;-84
2023/01/27 02:36:12;;;;;;;20.23;11.70;;;51.40;2227.20;;;;;;5057204;28;20382;-83
2023/01/27 02:38:51;;;;;;;23.23;12.90;;;51.40;2227.20;;;;;;5056719;28;20082;-85
2023/01/27 02:41:19;;;;;;;31.42;17.70;;;51.40;2227.20;;;;;;5057115;28;20021;-83
2023/01/27 02:43:47;;;;;;;39.17;20.85;;;51.40;2227.20;;;;;;5056697;28;20028;-83
2023/01/27 02:46:13;;;;;;;34.60;19.40;;;51.40;2227.20;;;;;;5057011;28;20063;-83
2023/01/27 02:48:39;;;;;;;53.78;28.73;;;51.40;2227.20;;;;;;5056811;28;20029;-83
2023/01/27 02:51:04;;;;;;;40.67;22.67;;;51.40;2227.20;;;;;;5057298;28;20453;-83
2023/01/27 02:53:30;;;;;;;45.50;25.35;;;51.40;2227.20;;;;;;5056688;28;20493;-83
2023/01/27 02:55:56;;;;;;;27.80;16.92;;;51.40;2227.20;;;;;;5056502;28;20471;-84
2023/01/27 02:58:22;;;;;;;24.02;15.02;;;51.40;2227.20;;;;;;5056208;28;20021;-84
2023/01/27 03:00:47;;;;;;;23.48;13.75;;;51.30;2227.20;;;;;;5056479;28;20071;-84
2023/01/27 03:03:13;;;;;;;33.03;18.10;;;51.30;2227.20;;;;;;5056537;28;20021;-84
2023/01/27 03:05:39;;;;;;;17.75;11.75;;;51.20;2227.20;;;;;;5056409;28;20036;-83
2023/01/27 03:08:06;;;;;;;20.42;12.20;;;51.20;2227.20;;;;;;5056216;28;20489;-83
2023/01/27 03:10:31;;;;;;;12.50;7.88;;;26.50;2201.60;;;;;;5055814;28;20059;-86
2023/01/27 03:12:57;;;;;;;14.38;8.48;;;51.30;2227.20;;;;;;5055950;28;20104;-86
2023/01/27 03:18:11;;;;;;;12.18;7.53;;;51.20;2227.20;;;;;;5057500;28;20036;-86
2023/01/27 03:20:37;;;;;;;17.63;9.50;;;26.50;2201.60;;;;;;5056267;28;20025;-88
2023/01/27 03:23:03;;;;;;;22.52;12.10;;;26.50;2201.60;;;;;;5056037;28;20060;-87
2023/01/27 03:25:29;;;;;;;24.20;13.65;;;26.50;2201.60;;;;;;5055994;28;20061;-85
2023/01/27 03:27:56;;;;;;;19.75;11.23;;;26.50;2201.60;;;;;;5055967;28;20036;-87
2023/01/27 03:30:21;;;;;;;19.63;11.13;;;26.50;2201.60;;;;;;5056471;28;20095;-86
2023/01/27 03:32:47;;;;;;;19.75;11.40;;;26.50;2201.60;;;;;;5055833;28;20029;-88
2023/01/27 03:35:15;;;;;;;19.08;11.90;;;26.50;2201.60;;;;;;5055819;28;20028;-88
2023/01/27 03:48:38;;;;;;;23.60;13.02;;;26.50;2201.60;;;;;;5056756;28;20141;-86
2023/01/27 03:51:06;;;;;;;19.65;12.40;;;26.50;2201.60;;;;;;5057315;28;20466;-87
2023/01/27 03:53:34;;;;;;;22.60;14.35;;;26.50;2201.60;;;;;;5054245;28;20029;-85
2023/01/27 03:56:00;;;;;;;21.52;14.43;;;26.50;2201.60;;;;;;5055004;28;20033;-87
2023/01/27 03:58:30;;;;;;;21.05;12.85;;;26.50;2201.60;;;;;;5054826;28;20021;-80
2023/01/27 04:00:59;;;;;;;25.02;14.82;;;51.20;2227.20;;;;;;5062828;28;20016;-85
2023/01/27 04:09:02;;;;;;;22.20;12.88;;;51.30;2227.20;;;;;;5076219;28;20089;-85
2023/01/27 04:14:13;;;;;;;19.33;9.82;;;51.20;2227.20;;;;;;5076487;28;20560;-87
2023/01/27 04:16:39;;;;;;;22.85;12.73;;;26.50;2201.60;;;;;;5075171;28;20127;-87
2023/01/27 04:19:06;;;;;;;17.55;11.70;;;26.50;2201.60;;;;;;5075426;28;20032;-89
2023/01/27 04:21:32;;;;;;;17.73;12.00;;;51.20;2227.20;;;;;;5076339;28;20020;-86
2023/01/27 04:23:58;;;;;;;16.17;10.30;;;26.50;2201.60;;;;;;5078010;28;20025;-86
2023/01/27 04:26:25;;;;;;;21.10;12.90;;;26.50;2201.60;;;;;;5086232;28;20065;-86
2023/01/27 04:28:50;;;;;;;20.80;13.02;;;26.40;2201.60;;;;;;5085948;28;20025;-86
2023/01/27 04:31:16;;;;;;;20.23;13.40;;;26.50;2201.60;;;;;;5093131;28;20063;-83
2023/01/27 04:33:43;;;;;;;19.95;12.93;;;26.40;2201.60;;;;;;5099740;28;20012;-85
2023/01/27 04:36:12;;;;;;;20.40;13.20;;;26.50;2201.60;;;;;;5099590;28;20041;-81
2023/01/27 04:38:38;;;;;;;29.23;17.67;;;26.50;2201.60;;;;;;5097362;28;20032;-86
2023/01/27 04:41:04;;;;;;;26.65;17.50;;;26.50;2201.60;;;;;;5084487;28;20082;-86
2023/01/27 04:43:30;;;;;;;29.35;17.67;;;51.20;2227.20;;;;;;5083065;28;20165;-84
2023/01/27 04:45:55;;;;;;;24.13;14.82;;;26.50;2201.60;;;;;;5075814;28;20028;-85
2023/01/27 04:48:21;;;;;;;26.52;16.73;;;26.40;2201.60;;;;;;5075174;28;20039;-84
2023/01/27 04:50:47;;;;;;;36.50;22.73;;;26.50;2201.60;;;;;;5074107;28;20450;-85
2023/01/27 04:53:12;;;;;;;28.08;18.65;;;26.50;2201.60;;;;;;5073362;28;20028;-87
2023/01/27 04:55:47;;;;;;;42.63;22.48;;;26.50;2201.60;;;;;;5075971;28;20430;-86
2023/01/27 04:58:15;;;;;;;42.38;25.40;;;26.50;2201.60;;;;;;5075396;28;20032;-86
2023/01/27 05:00:41;;;;;;;31.27;18.75;;;26.40;2201.60;;;;;;5078276;28;20028;-86
2023/01/27 05:03:08;;;;;;;22.85;14.43;;;26.40;2201.60;;;;;;5075294;28;20025;-85
2023/01/27 05:05:35;;;;;;;28.17;17.40;;;26.40;2201.60;;;;;;5074816;28;20039;-86
2023/01/27 05:08:06;;;;;;;35.65;19.75;;;26.40;2201.60;;;;;;5089035;28;20036;-88
2023/01/27 05:10:32;;;;;;;38.60;22.10;;;26.30;2201.60;;;;;;5094074;28;20044;-86
2023/01/27 05:12:58;;;;;;;26.30;16.52;;;26.40;2201.60;;;;;;5095429;28;20028;-88
2023/01/27 05:15:24;;;;;;;26.83;16.60;;;26.40;2201.60;;;;;;5094265;28;20072;-86
2023/01/27 05:17:50;;;;;;;33.40;20.85;;;26.40;2201.60;;;;;;5094481;28;20101;-86
2023/01/27 05:20:16;;;;;;;41.28;23.33;;;26.50;2201.60;;;;;;5094343;28;20429;-85
2023/01/27 05:22:42;;;;;;;37.15;20.70;;;26.50;2201.60;;;;;;5094477;28;20111;-86
2023/01/27 05:25:08;;;;;;;31.30;18.27;;;26.40;2201.60;;;;;;5095134;28;20082;-85
2023/01/27 05:27:34;;;;;;;24.02;15.13;;;26.50;2201.60;;;;;;5094085;28;20028;-85
2023/01/27 05:30:00;;;;;;;57.17;31.00;;;26.40;2201.60;;;;;;5093968;28;20035;-85
2023/01/27 05:32:26;;;;;;;38.47;21.67;;;26.50;2201.60;;;;;;5094946;28;20023;-86
2023/01/27 05:34:52;;;;;;;39.83;23.33;;;26.50;2201.60;;;;;;5100397;28;20028;-84
2023/01/27 05:37:18;;;;;;;24.05;15.85;;;26.50;2201.60;;;;;;5095445;28;20028;-86
2023/01/27 05:39:43;;;;;;;35.75;22.80;;;26.40;2201.60;;;;;;5093547;28;20063;-86
2023/01/27 05:42:09;;;;;;;36.38;23.10;;;26.50;2201.60;;;;;;5093799;28;20034;-85
2023/01/27 05:44:35;;;;;;;44.72;27.90;;;26.50;2201.60;;;;;;5093825;28;20051;-85
2023/01/27 05:47:00;;;;;;;56.22;29.02;;;26.50;2201.60;;;;;;5093547;28;20469;-86
2023/01/27 05:49:26;;;;;;;45.30;26.00;;;51.20;2227.20;;;;;;5093491;28;20028;-86
2023/01/27 05:51:52;;;;;;;42.25;23.17;;;26.50;2201.60;;;;;;5092339;28;20020;-86
2023/01/27 05:54:18;;;;;;;47.40;23.95;;;26.50;2201.60;;;;;;5093258;28;20032;-87
2023/01/27 05:56:43;;;;;;;53.55;27.60;;;26.50;2201.60;;;;;;5092978;28;20032;-84
2023/01/27 05:59:10;;;;;;;42.30;22.45;;;26.50;2201.60;;;;;;5094730;28;20502;-86
2023/01/27 06:01:36;;;;;;;54.20;28.13;;;26.50;2201.60;;;;;;5093166;28;20485;-88
2023/01/27 06:04:03;;;;;;;55.97;27.90;;;26.50;2201.60;;;;;;5093287;28;20024;-87
2023/01/27 06:06:30;;;;;;;37.60;22.80;;;26.50;2201.60;;;;;;5094291;28;20173;-83
2023/01/27 06:08:56;;;;;;;38.63;21.88;;;26.50;2201.60;;;;;;5094600;28;20020;-85
2023/01/27 06:11:23;;;;;;;36.17;21.83;;;26.50;2201.60;;;;;;5093269;28;20040;-86
2023/01/27 06:13:51;;;;;;;38.78;23.27;;;51.20;2227.20;;;;;;5093290;28;20051;-85
2023/01/27 06:16:19;;;;;;;26.05;17.40;;;51.20;2227.20;;;;;;5093346;28;20466;-85
2023/01/27 06:18:46;;;;;;;31.25;17.70;;;26.50;2201.60;;;;;;5093215;28;20074;-86
2023/01/27 06:21:13;;;;;;;29.02;17.20;;;26.50;2201.60;;;;;;5093016;28;20114;-87
2023/01/27 06:23:39;;;;;;;30.10;18.45;;;26.50;2201.60;;;;;;5094698;28;20028;-86
2023/01/27 06:26:11;;;;;;;27.38;15.30;;;26.50;2201.60;;;;;;5093258;28;20101;-86
2023/01/27 06:28:38;;;;;;;25.35;17.45;;;26.50;2201.60;;;;;;5095483;28;20126;-86
2023/01/27 06:31:12;;;;;;;24.23;15.10;;;26.50;2201.60;;;;;;5095512;28;20116;-86
2023/01/27 06:33:38;;;;;;;27.00;15.50;;;51.20;2227.20;;;;;;5096188;28;20161;-87
2023/01/27 06:36:24;;;;;;;31.08;16.70;;;51.20;2227.20;;;;;;5093304;28;20499;-85
2023/01/27 06:38:50;;;;;;;28.23;17.67;;;26.50;2201.60;;;;;;5093037;28;20043;-88
2023/01/27 06:41:16;;;;;;;22.38;15.35;;;51.20;2227.20;;;;;;5094496;28;20030;-87
2023/01/27 06:43:42;;;;;;;25.92;17.30;;;26.50;2201.60;;;;;;5093269;28;20024;-85
2023/01/27 06:46:08;;;;;;;21.73;16.17;;;51.20;2227.20;;;;;;5093181;28;20480;-86
2023/01/27 06:48:34;;;;;;;32.53;17.88;;;51.30;2227.20;;;;;;5092957;28;20122;-86
2023/01/27 06:51:00;;;;;;;23.65;15.75;;;51.30;2227.20;;;;;;5093116;28;20024;-86
2023/01/27 06:53:26;;;;;;;24.80;16.77;;;51.20;2227.20;;;;;;5093082;28;20118;-85
2023/01/27 06:55:56;;;;;;;58.67;35.42;;;51.30;2227.20;;;;;;5093166;28;20473;-85
2023/01/27 06:58:22;;;;;;;41.83;27.45;;;51.30;2227.20;;;;;;5093018;28;20119;-85
2023/01/27 07:00:48;;;;;;;60.40;32.35;;;51.30;2227.20;;;;;;5093183;28;20063;-85
2023/01/27 07:03:14;;;;;;;49.30;28.63;;;51.30;2227.20;;;;;;5093355;28;20474;-85
2023/01/27 07:05:40;;;;;;;37.55;24.08;;;51.40;2227.20;;;;;;5092686;28;20032;-84
2023/01/27 07:08:06;;;;;;;28.10;18.70;;;51.40;2227.20;;;;;;5094435;28;20069;-86
2023/01/27 07:10:32;;;;;;;35.35;24.20;;;51.40;2227.20;;;;;;5092699;28;20123;-85
2023/01/27 07:13:10;;;;;;;40.03;27.90;;;51.50;2227.20;;;;;;5093157;28;20125;-85
2023/01/27 07:15:35;;;;;;;45.38;28.88;;;51.50;2227.20;;;;;;5095291;28;20469;-87
2023/01/27 07:18:02;;;;;;;37.22;25.33;;;51.60;2227.20;;;;;;5097157;28;20049;-84
2023/01/27 07:20:28;;;;;;;35.85;22.17;;;51.70;2227.20;;;;;;5096871;28;20024;-84
2023/01/27 07:23:03;;;;;;;36.63;23.27;;;51.50;2227.20;;;;;;5099308;28;20448;-85
2023/01/27 07:25:30;;;;;;;28.83;18.10;;;51.60;2227.20;;;;;;5096391;28;20415;-84
2023/01/27 07:27:57;;;;;;;26.45;17.17;;;51.60;2227.20;;;;;;5096622;28;20032;-87
2023/01/27 07:30:24;;;;;;;29.48;18.50;;;51.60;2227.20;;;;;;5096551;28;20030;-88
2023/01/27 07:32:50;;;;;;;34.97;19.65;;;51.60;2227.20;;;;;;5096279;28;20044;-86
2023/01/27 07:35:16;;;;;;;36.90;22.88;;;51.60;2227.20;;;;;;5096744;28;20071;-88
2023/01/27 07:37:42;;;;;;;29.00;18.17;;;51.60;2227.20;;;;;;5097348;28;20051;-86
2023/01/27 07:40:09;;;;;;;33.00;20.20;;;51.60;2227.20;;;;;;5096218;28;20021;-87
2023/01/27 07:42:35;;;;;;;31.95;19.88;;;51.60;2227.20;;;;;;5095409;28;20028;-85
2023/01/27 07:45:00;;;;;;;32.47;18.67;;;51.70;2227.20;;;;;;5098556;28;20031;-86
2023/01/27 07:47:26;;;;;;;30.75;17.95;;;51.70;2227.20;;;;;;5096276;28;20028;-84
2023/01/27 07:49:52;;;;;;;27.40;17.60;;;51.60;2227.20;;;;;;5099085;28;20035;-86
2023/01/27 07:52:18;;;;;;;30.67;18.92;;;51.60;2227.20;;;;;;5096490;28;20087;-87
2023/01/27 07:54:43;;;;;;;28.52;19.55;;;51.70;2227.20;;;;;;5097366;28;20382;-85
2023/01/27 07:57:09;;;;;;;27.75;17.60;;;51.70;2227.20;;;;;;5097932;28;20031;-88
2023/01/27 07:59:35;;;;;;;23.25;16.52;;;51.60;2227.20;;;;;;5107501;28;20012;-87
2023/01/27 08:02:00;;;;;;;20.67;13.82;;;51.60;2227.20;;;;;;5120759;28;20028;-84
2023/01/27 08:04:26;;;;;;;18.52;14.15;;;51.60;2227.20;;;;;;5120158;28;20039;-84
2023/01/27 08:06:52;;;;;;;22.98;14.15;;;51.60;2227.20;;;;;;5120086;28;20042;-84
2023/01/27 08:09:17;;;;;;;17.23;10.70;;;51.70;2227.20;;;;;;5120134;28;20036;-83
2023/01/27 08:11:43;;;;;;;21.80;14.32;;;51.70;2227.20;;;;;;5118026;28;20063;-85
2023/01/27 08:14:09;;;;;;;16.75;12.55;;;51.70;2227.20;;;;;;5097789;28;20397;-86
2023/01/27 08:16:34;;;;;;;19.70;14.52;;;51.80;2227.20;;;;;;5098416;28;20466;-87
2023/01/27 08:19:00;;;;;;;22.00;14.50;;;51.80;2227.20;;;;;;5096764;28;20381;-81
2023/01/27 08:21:31;;;;;;;23.95;17.63;;;51.90;2227.20;;;;;;5096202;28;20459;-80
2023/01/27 08:24:00;;;;;;;23.98;15.50;;;52.00;2227.20;;;;;;5097439;28;20028;-87
2023/01/27 08:26:26;;;;;;;26.20;18.80;;;52.00;2227.20;;;;;;5095806;28;20040;-83
2023/01/27 08:28:51;;;;;;;27.73;18.67;;;52.10;2227.20;;;;;;5095851;28;20473;-83
2023/01/27 08:31:17;;;;;;;30.27;19.98;;;52.10;2227.20;;;;;;5095193;28;20025;-79
2023/01/27 08:33:48;;;;;;;31.65;20.73;;;52.10;2227.20;;;;;;5094932;28;20024;-81
2023/01/27 08:36:16;;;;;;;22.85;14.85;;;76.80;2227.20;;;;;;5096552;28;20028;-81
2023/01/27 08:38:43;;;;;;;22.33;15.55;;;76.80;2227.20;;;;;;5094477;28;20377;-80
2023/01/27 08:41:15;;;;;;;22.10;14.27;;;76.80;2227.20;;;;;;5094315;28;20032;-81
2023/01/27 08:43:41;;;;;;;27.52;17.42;;;76.80;2227.20;;;;;;5095732;28;20458;-83
2023/01/27 08:46:07;;;;;;;29.45;18.88;;;51.80;2227.20;;;;;;5095219;28;20028;-79
2023/01/27 08:48:34;;;;;;;58.95;34.55;;;76.80;2227.20;;;;;;5099193;28;20036;-82
2023/01/27 08:51:01;;;;;;;46.20;30.45;;;76.80;2227.20;;;;;;5101245;28;20409;-79
2023/01/27 08:53:27;;;;;;;49.60;32.05;;;76.80;2227.20;;;;;;5102946;28;20470;-76
2023/01/27 08:55:56;;;;;;;34.28;24.42;;;52.00;2227.20;;;;;;5118976;28;20040;-77
2023/01/27 08:58:22;;;;;;;43.78;27.05;;;76.80;2227.20;;;;;;5119413;28;20023;-79
2023/01/27 09:00:48;;;;;;;28.80;19.25;;;76.80;2227.20;;;;;;5096673;28;20040;-81
2023/01/27 09:03:14;;;;;;;38.63;25.83;;;76.90;2227.20;;;;;;5076454;28;20382;-81
2023/01/27 09:05:40;;;;;;;39.08;25.05;;;76.90;2227.20;;;;;;5074575;28;20029;-79
2023/01/27 09:08:06;;;;;;;44.03;25.77;;;77.00;2227.20;;;;;;5075790;28;20032;-80
2023/01/27 09:10:37;;;;;;;50.30;31.13;;;77.00;2227.20;;;;;;5073854;28;20044;-78
2023/01/27 09:13:02;;;;;;;58.97;32.60;;;77.10;2227.20;;;;;;5074434;28;20024;-79
2023/01/27 09:15:28;;;;;;;55.92;35.63;;;77.20;2227.20;;;;;;5074405;28;20048;-80
2023/01/27 09:17:54;;;;;;;63.40;38.88;;;77.20;2227.20;;;;;;5074199;28;20455;-81
2023/01/27 09:20:21;;;;;;;70.63;41.75;;;77.20;2227.20;;;;;;5074436;28;20056;-84
2023/01/27 09:22:47;;;;;;;69.43;37.40;;;77.30;2227.20;;;;;;5074994;28;20086;-81
2023/01/27 09:25:15;;;;;;;74.00;39.80;;;77.30;2227.20;;;;;;5075351;28;20028;-82
2023/01/27 09:27:42;;;;;;;74.80;40.15;;;77.40;2227.20;;;;;;5074731;28;20040;-84
2023/01/27 09:30:09;;;;;;;48.90;27.77;;;77.40;2227.20;;;;;;5074690;28;20032;-81
2023/01/27 09:32:35;;;;;;;31.83;21.15;;;77.40;2227.20;;;;;;5074966;28;20478;-78
2023/01/27 09:35:01;;;;;;;28.27;20.58;;;77.40;2227.20;;;;;;5074870;28;20103;-82
2023/01/27 09:37:27;;;;;;;37.85;24.73;;;77.40;2227.20;;;;;;5075324;28;20123;-83
2023/01/27 09:39:58;;;;;;;37.53;24.10;;;77.40;2227.20;;;;;;5073527;28;20399;-79
2023/01/27 09:42:35;;;;;;;36.85;24.90;;;77.50;2227.20;;;;;;5071667;28;20028;-80
2023/01/27 09:45:24;;;;;;;42.67;25.20;;;77.50;2227.20;;;;;;5072008;28;20469;-77
2023/01/27 09:48:13;;;;;;;50.88;26.88;;;77.60;2227.20;;;;;;5072679;28;20043;-80
2023/01/27 09:51:07;;;;;;;250.30;131.90;;;77.70;2227.20;;;;;;5073496;28;20359;-78
2023/01/27 09:53:51;;;;;;;68.30;39.80;;;77.70;2227.20;;;;;;5073560;28;20466;-79
2023/01/27 09:56:40;;;;;;;64.93;40.72;;;77.70;2227.20;;;;;;5073673;28;20074;-78
2023/01/27 09:59:30;;;;;;;42.65;25.70;;;77.70;2227.20;;;;;;5072902;28;20457;-80
2023/01/27 10:02:04;;;;;;;31.30;21.45;;;77.70;2227.20;;;;;;5073583;28;20036;-77
2023/01/27 10:05:15;;;;;;;28.60;21.05;;;77.70;2227.20;;;;;;5074210;28;20021;-78
2023/01/27 10:07:56;;;;;;;20.20;15.05;;;77.70;2227.20;;;;;;5051183;28;20452;-80
2023/01/27 10:10:42;;;;;;;24.77;17.20;;;77.70;2227.20;;;;;;5073904;28;20486;-77
2023/01/27 10:13:15;;;;;;;43.95;28.00;;;77.70;2227.20;;;;;;5073857;28;20027;-81
2023/01/27 10:16:13;;;;;;;46.55;30.10;;;77.70;2227.20;;;;;;5073821;28;20054;-82
2023/01/27 10:18:39;;;;;;;36.78;25.83;;;102.40;2227.20;;;;;;5042454;28;20036;-79
2023/01/27 10:21:16;;;;;;;57.85;35.80;;;102.40;2227.20;;;;;;5073359;28;20039;-84
2023/01/27 10:23:45;;;;;;;46.88;30.35;;;102.40;2227.20;;;;;;5074458;28;20051;-81
2023/01/27 10:26:30;;;;;;;48.05;30.58;;;102.40;2227.20;;;;;;5073292;28;20032;-83
2023/01/27 10:29:19;;;;;;;50.92;31.58;;;102.40;2227.20;;;;;;5073439;28;20082;-84
2023/01/27 10:32:04;;;;;;;72.22;52.53;;;102.50;2227.20;;;;;;5074280;28;20032;-84
2023/01/27 10:34:57;;;;;;;35.40;26.77;;;102.50;2227.20;;;;;;5070020;28;20033;-85
2023/01/27 10:37:46;;;;;;;37.40;24.55;;;102.60;2227.20;;;;;;5029116;28;20045;-86
2023/01/27 10:40:23;;;;;;;34.38;20.15;;;102.50;2227.20;;;;;;5057370;28;20033;-85
2023/01/27 10:43:03;;;;;;;35.20;20.77;;;102.50;2227.20;;;;;;5058910;28;20025;-85
2023/01/27 10:45:39;;;;;;;46.90;29.20;;;102.60;2227.20;;;;;;5068313;28;20040;-84
2023/01/27 10:48:11;;;;;;;57.08;39.05;;;102.60;2227.20;;;;;;5052537;28;20500;-84
2023/01/27 10:50:45;;;;;;;55.92;39.63;;;102.60;2227.20;;;;;;5054150;28;20025;-79
2023/01/27 10:53:34;;;;;;;87.70;61.63;;;102.60;2227.20;;;;;;5057182;28;20099;-84
2023/01/27 10:56:27;;;;;;;58.17;40.20;;;102.60;2227.20;;;;;;5057339;28;20024;-86
2023/01/27 10:59:05;;;;;;;69.88;48.75;;;102.60;2227.20;;;;;;5045851;28;20060;-86
2023/01/27 11:01:38;;;;;;;46.90;31.48;;;102.60;2227.20;;;;;;5057882;28;20462;-84
2023/01/27 11:04:15;;;;;;;;;;;102.60;2227.20;;;;;;5058172;28;20028;-85
2023/01/27 11:06:44;;;;;;;44.20;28.42;;;102.60;2227.20;;;;;;5056230;28;19909;-84
2023/01/27 11:09:26;;;;;;;52.80;35.90;;;102.60;2227.20;;;;;;5057342;28;20041;-84
2023/01/27 11:11:57;;;;;;;98.53;61.23;;;102.50;2227.20;;;;;;5059447;28;20084;-85
2023/01/27 11:14:27;;;;;;;56.85;39.42;;;102.50;2227.20;;;;;;5057396;28;20028;-85
2023/01/27 11:17:13;;;;;;;70.13;43.70;;;102.50;2227.20;;;;;;5057425;28;20045;-83
2023/01/27 11:19:42;;;;;;;83.00;53.83;;;102.50;2227.20;;;;;;5056923;28;20029;-85
2023/01/27 11:22:22;;;;;;;92.15;60.67;;;102.50;2227.20;;;;;;5057907;28;20432;-86
2023/01/27 11:25:16;;;;;;;79.53;52.50;;;102.50;2227.20;;;;;;5057041;28;20115;-84
2023/01/27 11:28:03;;;;;;;92.60;60.08;;;102.50;2227.20;;;;;;5056118;28;20508;-85
2023/01/27 11:30:47;;;;;;;79.30;53.58;;;102.50;2227.20;;;;;;5056071;28;20037;-85
2023/01/27 11:33:25;;;;;;;55.53;39.70;;;102.50;2227.20;;;;;;5056917;28;20025;-84
2023/01/27 11:35:52;;;;;;;59.30;40.47;;;102.50;2227.20;;;;;;5056468;28;20029;-86
2023/01/27 11:38:20;;;;;;;60.63;40.72;;;102.40;2227.20;;;;;;5058846;28;20032;-87
2023/01/27 11:40:50;;;;;;;53.17;38.85;;;102.50;2227.20;;;;;;5058823;28;20088;-86
2023/01/27 11:43:22;;;;;;;52.05;37.00;;;102.50;2227.20;;;;;;5058009;28;20025;-84
2023/01/27 11:45:51;;;;;;;61.28;42.03;;;102.50;2227.20;;;;;;5057421;28;20041;-85
2023/01/27 11:48:19;;;;;;;67.55;45.72;;;102.40;2227.20;;;;;;5058316;28;20481;-85
2023/01/27 11:50:45;;;;;;;49.85;32.53;;;102.50;2227.20;;;;;;5056316;28;20032;-89
2023/01/27 11:53:31;;;;;;;61.08;39.30;;;102.50;2227.20;;;;;;5056338;28;20029;-85
2023/01/27 11:56:00;;;;;;;52.42;33.42;;;102.40;2227.20;;;;;;5056958;28;20052;-84
2023/01/27 11:58:33;;;;;;;36.97;25.45;;;102.40;2227.20;;;;;;5056796;28;20025;-83
2023/01/27 12:01:04;;;;;;;71.28;44.90;;;77.70;2227.20;;;;;;5055648;28;20052;-83
2023/01/27 12:03:33;;;;;;;56.80;36.90;;;77.70;2227.20;;;;;;5056430;28;20029;-82
2023/01/27 12:06:04;;;;;;;72.15;45.50;;;77.70;2227.20;;;;;;5056107;28;20032;-83
2023/01/27 12:08:43;;;;;;;84.15;52.92;;;77.70;2227.20;;;;;;5056165;28;20040;-83
2023/01/27 12:11:21;;;;;;;91.40;58.70;;;77.70;2227.20;;;;;;5056413;28;20063;-84
2023/01/27 12:13:52;;;;;;;77.80;48.40;;;77.60;2227.20;;;;;;5056438;28;20387;-85
2023/01/27 12:16:18;;;;;;;58.13;36.45;;;77.70;2227.20;;;;;;5057827;28;20025;-85
2023/01/27 12:18:53;;;;;;;51.08;32.33;;;77.60;2227.20;;;;;;5057887;28;20053;-84
2023/01/27 12:21:19;;;;;;;62.10;36.10;;;77.50;2227.20;;;;;;5058894;28;20375;-85
2023/01/27 12:23:52;;;;;;;38.78;27.73;;;77.60;2227.20;;;;;;5059093;28;20063;-85
2023/01/27 12:26:36;;;;;;;30.55;21.50;;;77.50;2227.20;;;;;;5056767;28;20497;-84
2023/01/27 12:29:19;;;;;;;38.60;26.15;;;77.50;2227.20;;;;;;5056341;28;20035;-86
2023/01/27 12:31:52;;;;;;;47.03;29.73;;;77.50;2227.20;;;;;;5055163;28;20075;-85
2023/01/27 12:34:23;;;;;;;37.38;22.90;;;77.50;2227.20;;;;;;5055107;28;20029;-84
2023/01/27 12:36:50;;;;;;;46.65;30.63;;;77.50;2227.20;;;;;;5055554;28;20033;-83
2023/01/27 12:39:43;;;;;;;59.35;38.33;;;77.50;2227.20;;;;;;5054533;28;20020;-81
2023/01/27 12:42:37;;;;;;;53.70;37.08;;;77.50;2227.20;;;;;;5057110;28;20175;-84
2023/01/27 12:45:20;;;;;;;53.97;35.38;;;77.50;2227.20;;;;;;5055481;28;20029;-85
2023/01/27 12:48:12;;;;;;;65.63;41.95;;;77.50;2227.20;;;;;;5055147;28;20033;-82
2023/01/27 12:50:50;;;;;;;50.67;33.40;;;77.40;2227.20;;;;;;5045278;28;20478;-84
2023/01/27 12:53:28;;;;;;;86.45;54.00;;;77.40;2227.20;;;;;;5056689;28;20032;-81